sensor_id;sensor_type;location;lat;lon;timestamp;pressure;altitude;pressure_sealevel;temperature;humidity
26436;BME280;15351;52.408;16.826;2023-12-29T00:01:25;100418.70;;;8.03;76.62
26436;BME280;15351;52.408;16.826;2023-12-29T00:07:52;100411.15;;;8.00;76.56
26436;BME280;15351;52.408;16.826;2023-12-29T00:11:21;100411.21;;;7.99;76.71
26436;BME280;15351;52.408;16.826;2023-12-29T00:14:25;100409.96;;;7.99;76.73
26436;BME280;15351;52.408;16.826;2023-12-29T00:17:36;100401.88;;;8.00;76.76
26436;BME280;15351;52.408;16.826;2023-12-29T00:20:49;100400.84;;;7.97;76.68
26436;BME280;15351;52.408;16.826;2023-12-29T00:23:44;100389.61;;;7.95;76.75
26436;BME280;15351;52.408;16.826;2023-12-29T00:27:01;100389.30;;;7.95;76.68
26436;BME280;15351;52.408;16.826;2023-12-29T00:30:07;100383.02;;;7.93;76.80
26436;BME280;15351;52.408;16.826;2023-12-29T00:36:38;100380.34;;;7.92;76.87
26436;BME280;15351;52.408;16.826;2023-12-29T00:39:46;100374.39;;;7.90;76.83
26436;BME280;15351;52.408;16.826;2023-12-29T00:42:37;100373.19;;;7.92;76.70
26436;BME280;15351;52.408;16.826;2023-12-29T00:45:34;100372.60;;;7.89;76.72
26436;BME280;15351;52.408;16.826;2023-12-29T00:49:09;100369.54;;;7.88;76.83
26436;BME280;15351;52.408;16.826;2023-12-29T00:55:22;100364.20;;;7.85;76.98
26436;BME280;15351;52.408;16.826;2023-12-29T00:58:29;100355.20;;;7.84;76.91
26436;BME280;15351;52.408;16.826;2023-12-29T01:01:47;100350.63;;;7.83;76.87
26436;BME280;15351;52.408;16.826;2023-12-29T01:04:58;100349.18;;;7.82;77.07
26436;BME280;15351;52.408;16.826;2023-12-29T01:11:27;100348.25;;;7.79;77.02
26436;BME280;15351;52.408;16.826;2023-12-29T01:14:03;100353.17;;;7.78;77.16
26436;BME280;15351;52.408;16.826;2023-12-29T01:17:10;100358.17;;;7.80;77.24
26436;BME280;15351;52.408;16.826;2023-12-29T01:20:13;100353.91;;;7.78;77.11
26436;BME280;15351;52.408;16.826;2023-12-29T01:25:40;100351.83;;;7.79;77.22
26436;BME280;15351;52.408;16.826;2023-12-29T01:28:10;100353.27;;;7.77;77.14
26436;BME280;15351;52.408;16.826;2023-12-29T01:31:02;100342.67;;;7.71;77.23
26436;BME280;15351;52.408;16.826;2023-12-29T01:33:59;100343.79;;;7.74;77.38
26436;BME280;15351;52.408;16.826;2023-12-29T01:41:00;100331.98;;;7.74;77.34
26436;BME280;15351;52.408;16.826;2023-12-29T01:43:36;100336.55;;;7.74;77.34
26436;BME280;15351;52.408;16.826;2023-12-29T01:46:51;100328.92;;;7.74;77.26
26436;BME280;15351;52.408;16.826;2023-12-29T01:49:27;100329.49;;;7.73;77.26
26436;BME280;15351;52.408;16.826;2023-12-29T01:52:37;100325.50;;;7.72;77.42
26436;BME280;15351;52.408;16.826;2023-12-29T01:55:21;100323.92;;;7.72;77.47
26436;BME280;15351;52.408;16.826;2023-12-29T02:02:06;100317.77;;;7.71;77.63
26436;BME280;15351;52.408;16.826;2023-12-29T02:05:05;100309.63;;;7.71;77.68
26436;BME280;15351;52.408;16.826;2023-12-29T02:07:44;100306.33;;;7.71;77.75
26436;BME280;15351;52.408;16.826;2023-12-29T02:10:48;100295.57;;;7.73;77.70
26436;BME280;15351;52.408;16.826;2023-12-29T02:13:24;100287.67;;;7.71;77.71
26436;BME280;15351;52.408;16.826;2023-12-29T02:19:51;100280.70;;;7.73;77.76
26436;BME280;15351;52.408;16.826;2023-12-29T02:23:09;100276.61;;;7.74;77.86
26436;BME280;15351;52.408;16.826;2023-12-29T02:25:53;100276.79;;;7.76;77.94
26436;BME280;15351;52.408;16.826;2023-12-29T02:35:39;100276.68;;;7.78;78.08
26436;BME280;15351;52.408;16.826;2023-12-29T02:38:23;100268.36;;;7.78;77.91
26436;BME280;15351;52.408;16.826;2023-12-29T02:45:27;100267.32;;;7.79;77.99
26436;BME280;15351;52.408;16.826;2023-12-29T02:48:58;100267.13;;;7.79;78.01
26436;BME280;15351;52.408;16.826;2023-12-29T02:52:57;100262.26;;;7.76;78.10
26436;BME280;15351;52.408;16.826;2023-12-29T02:55:59;100267.69;;;7.77;78.19
26436;BME280;15351;52.408;16.826;2023-12-29T02:58:38;100267.96;;;7.80;78.20
26436;BME280;15351;52.408;16.826;2023-12-29T03:01:48;100256.76;;;7.81;78.14
26436;BME280;15351;52.408;16.826;2023-12-29T03:05:04;100255.77;;;7.82;78.28
26436;BME280;15351;52.408;16.826;2023-12-29T03:07:35;100256.31;;;7.82;78.15
26436;BME280;15351;52.408;16.826;2023-12-29T03:10:26;100259.79;;;7.84;78.11
26436;BME280;15351;52.408;16.826;2023-12-29T03:16:21;100244.35;;;7.88;78.13
26436;BME280;15351;52.408;16.826;2023-12-29T03:19:05;100234.71;;;7.88;78.18
26436;BME280;15351;52.408;16.826;2023-12-29T03:25:32;100229.95;;;7.84;78.10
26436;BME280;15351;52.408;16.826;2023-12-29T03:28:36;100219.98;;;7.87;78.38
26436;BME280;15351;52.408;16.826;2023-12-29T03:31:34;100223.64;;;7.89;78.23
26436;BME280;15351;52.408;16.826;2023-12-29T03:51:28;100210.79;;;7.93;78.06
26436;BME280;15351;52.408;16.826;2023-12-29T03:54:10;100206.23;;;7.93;78.18
26436;BME280;15351;52.408;16.826;2023-12-29T04:03:40;100201.35;;;7.90;78.19
26436;BME280;15351;52.408;16.826;2023-12-29T04:17:20;100179.30;;;7.92;78.20
26436;BME280;15351;52.408;16.826;2023-12-29T04:20:34;100185.95;;;7.93;78.30
26436;BME280;15351;52.408;16.826;2023-12-29T04:23:30;100184.23;;;7.94;78.24
26436;BME280;15351;52.408;16.826;2023-12-29T04:29:51;100182.86;;;7.97;78.26
26436;BME280;15351;52.408;16.826;2023-12-29T04:33:06;100178.52;;;7.94;78.16
26436;BME280;15351;52.408;16.826;2023-12-29T04:35:45;100175.54;;;7.93;78.12
26436;BME280;15351;52.408;16.826;2023-12-29T04:38:45;100170.14;;;7.92;78.15
26436;BME280;15351;52.408;16.826;2023-12-29T04:45:01;100171.52;;;7.91;77.96
26436;BME280;15351;52.408;16.826;2023-12-29T04:47:55;100166.68;;;7.91;78.11
26436;BME280;15351;52.408;16.826;2023-12-29T04:51:02;100170.30;;;7.91;77.92
26436;BME280;15351;52.408;16.826;2023-12-29T04:53:37;100172.08;;;7.91;77.79
26436;BME280;15351;52.408;16.826;2023-12-29T04:56:45;100166.58;;;7.90;77.91
26436;BME280;15351;52.408;16.826;2023-12-29T05:00:06;100162.95;;;7.87;77.82
26436;BME280;15351;52.408;16.826;2023-12-29T05:03:00;100157.01;;;7.86;77.90
26436;BME280;15351;52.408;16.826;2023-12-29T05:06:19;100155.08;;;7.86;77.88
26436;BME280;15351;52.408;16.826;2023-12-29T05:09:25;100150.16;;;7.83;77.87
26436;BME280;15351;52.408;16.826;2023-12-29T05:12:48;100154.27;;;7.82;77.85
26436;BME280;15351;52.408;16.826;2023-12-29T05:15:50;100153.13;;;7.83;77.80
26436;BME280;15351;52.408;16.826;2023-12-29T05:21:32;100140.70;;;7.80;77.82
26436;BME280;15351;52.408;16.826;2023-12-29T05:27:31;100135.08;;;7.76;77.92
26436;BME280;15351;52.408;16.826;2023-12-29T05:30:43;100135.56;;;7.81;77.80
26436;BME280;15351;52.408;16.826;2023-12-29T05:33:40;100131.98;;;7.81;77.90
26436;BME280;15351;52.408;16.826;2023-12-29T05:39:33;100123.92;;;7.84;78.06
26436;BME280;15351;52.408;16.826;2023-12-29T05:42:11;100118.95;;;7.87;78.16
26436;BME280;15351;52.408;16.826;2023-12-29T05:48:34;100115.33;;;7.89;78.09
26436;BME280;15351;52.408;16.826;2023-12-29T05:51:18;100106.42;;;7.92;78.22
26436;BME280;15351;52.408;16.826;2023-12-29T05:54:02;100100.92;;;7.94;78.18
26436;BME280;15351;52.408;16.826;2023-12-29T05:57:07;100107.36;;;7.96;78.34
26436;BME280;15351;52.408;16.826;2023-12-29T06:00:16;100107.48;;;7.98;78.24
26436;BME280;15351;52.408;16.826;2023-12-29T06:03:04;100102.79;;;8.00;78.17
26436;BME280;15351;52.408;16.826;2023-12-29T06:05:32;100108.85;;;8.02;78.16
26436;BME280;15351;52.408;16.826;2023-12-29T06:08:49;100106.34;;;8.04;78.18
26436;BME280;15351;52.408;16.826;2023-12-29T06:11:33;100111.10;;;8.06;78.05
26436;BME280;15351;52.408;16.826;2023-12-29T06:14:39;100110.86;;;8.10;78.12
26436;BME280;15351;52.408;16.826;2023-12-29T06:17:22;100109.11;;;8.11;78.15
26436;BME280;15351;52.408;16.826;2023-12-29T06:20:34;100108.70;;;8.15;78.17
26436;BME280;15351;52.408;16.826;2023-12-29T06:23:37;100102.76;;;8.18;78.40
26436;BME280;15351;52.408;16.826;2023-12-29T06:26:30;100104.59;;;8.21;78.19
26436;BME280;15351;52.408;16.826;2023-12-29T06:32:47;100091.61;;;8.27;78.34
26436;BME280;15351;52.408;16.826;2023-12-29T06:35:44;100094.35;;;8.30;78.22
26436;BME280;15351;52.408;16.826;2023-12-29T06:38:49;100090.08;;;8.33;78.10
26436;BME280;15351;52.408;16.826;2023-12-29T06:41:39;100094.70;;;8.35;78.12
26436;BME280;15351;52.408;16.826;2023-12-29T06:44:31;100095.31;;;8.38;78.05
26436;BME280;15351;52.408;16.826;2023-12-29T06:47:04;100096.88;;;8.39;78.06
26436;BME280;15351;52.408;16.826;2023-12-29T06:50:00;100092.98;;;8.40;78.00
26436;BME280;15351;52.408;16.826;2023-12-29T06:56:16;100095.17;;;8.48;77.68
26436;BME280;15351;52.408;16.826;2023-12-29T06:59:08;100090.09;;;8.50;77.85
26436;BME280;15351;52.408;16.826;2023-12-29T07:02:01;100090.31;;;8.53;77.72
26436;BME280;15351;52.408;16.826;2023-12-29T07:04:35;100087.89;;;8.54;77.62
26436;BME280;15351;52.408;16.826;2023-12-29T07:07:36;100092.08;;;8.58;77.68
26436;BME280;15351;52.408;16.826;2023-12-29T07:10:41;100088.39;;;8.60;77.58
26436;BME280;15351;52.408;16.826;2023-12-29T07:13:27;100083.55;;;8.61;77.57
26436;BME280;15351;52.408;16.826;2023-12-29T07:16:21;100084.52;;;8.62;77.49
26436;BME280;15351;52.408;16.826;2023-12-29T07:18:58;100090.05;;;8.64;77.47
26436;BME280;15351;52.408;16.826;2023-12-29T07:22:40;100088.84;;;8.65;77.46
26436;BME280;15351;52.408;16.826;2023-12-29T07:25:31;100085.61;;;8.67;77.54
26436;BME280;15351;52.408;16.826;2023-12-29T07:28:48;100088.38;;;8.71;77.43
26436;BME280;15351;52.408;16.826;2023-12-29T07:31:44;100083.98;;;8.75;77.38
26436;BME280;15351;52.408;16.826;2023-12-29T07:34:23;100073.33;;;8.77;77.31
26436;BME280;15351;52.408;16.826;2023-12-29T07:37:17;100078.05;;;8.79;77.32
26436;BME280;15351;52.408;16.826;2023-12-29T07:39:54;100081.00;;;8.82;77.27
26436;BME280;15351;52.408;16.826;2023-12-29T07:42:51;100079.30;;;8.84;77.10
26436;BME280;15351;52.408;16.826;2023-12-29T07:45:43;100078.02;;;8.86;77.05
26436;BME280;15351;52.408;16.826;2023-12-29T07:48:46;100083.25;;;8.89;77.04
26436;BME280;15351;52.408;16.826;2023-12-29T07:54:14;100079.55;;;8.89;76.92
26436;BME280;15351;52.408;16.826;2023-12-29T08:00:26;100083.98;;;8.93;76.97
26436;BME280;15351;52.408;16.826;2023-12-29T08:03:59;100081.23;;;8.95;76.84
26436;BME280;15351;52.408;16.826;2023-12-29T08:07:02;100079.27;;;8.97;76.88
26436;BME280;15351;52.408;16.826;2023-12-29T08:10:18;100076.77;;;8.98;76.88
26436;BME280;15351;52.408;16.826;2023-12-29T08:13:27;100078.77;;;9.01;76.97
26436;BME280;15351;52.408;16.826;2023-12-29T08:16:17;100071.77;;;9.02;76.87
26436;BME280;15351;52.408;16.826;2023-12-29T08:19:11;100073.34;;;9.03;76.83
26436;BME280;15351;52.408;16.826;2023-12-29T08:21:47;100077.87;;;9.05;76.82
26436;BME280;15351;52.408;16.826;2023-12-29T08:24:35;100074.42;;;9.07;76.77
26436;BME280;15351;52.408;16.826;2023-12-29T08:27:55;100082.11;;;9.15;76.97
26436;BME280;15351;52.408;16.826;2023-12-29T08:30:41;100082.48;;;9.19;76.78
26436;BME280;15351;52.408;16.826;2023-12-29T08:33:08;100090.17;;;9.24;76.71
26436;BME280;15351;52.408;16.826;2023-12-29T08:35:56;100089.77;;;9.27;76.66
26436;BME280;15351;52.408;16.826;2023-12-29T08:38:50;100083.79;;;9.31;76.89
26436;BME280;15351;52.408;16.826;2023-12-29T08:41:49;100082.31;;;9.34;76.57
26436;BME280;15351;52.408;16.826;2023-12-29T08:45:10;100083.20;;;9.39;76.47
26436;BME280;15351;52.408;16.826;2023-12-29T08:48:27;100087.02;;;9.45;76.52
26436;BME280;15351;52.408;16.826;2023-12-29T08:51:03;100097.70;;;9.49;76.26
26436;BME280;15351;52.408;16.826;2023-12-29T08:54:23;100098.98;;;9.56;76.26
26436;BME280;15351;52.408;16.826;2023-12-29T08:57:22;100098.35;;;9.65;76.25
26436;BME280;15351;52.408;16.826;2023-12-29T09:00:25;100098.81;;;9.73;76.25
26436;BME280;15351;52.408;16.826;2023-12-29T09:03:15;100094.44;;;9.78;76.00
26436;BME280;15351;52.408;16.826;2023-12-29T09:06:23;100089.73;;;9.80;76.01
26436;BME280;15351;52.408;16.826;2023-12-29T09:09:32;100091.52;;;9.80;75.99
26436;BME280;15351;52.408;16.826;2023-12-29T09:12:33;100095.66;;;9.80;75.85
26436;BME280;15351;52.408;16.826;2023-12-29T09:15:39;100094.92;;;9.80;75.84
26436;BME280;15351;52.408;16.826;2023-12-29T09:18:12;100094.11;;;9.81;75.73
26436;BME280;15351;52.408;16.826;2023-12-29T09:20:51;100095.22;;;9.80;75.80
26436;BME280;15351;52.408;16.826;2023-12-29T09:23:51;100098.66;;;9.82;75.84
26436;BME280;15351;52.408;16.826;2023-12-29T09:26:41;100096.14;;;9.83;76.15
26436;BME280;15351;52.408;16.826;2023-12-29T09:29:52;100092.36;;;9.87;76.23
26436;BME280;15351;52.408;16.826;2023-12-29T09:32:23;100092.85;;;9.92;76.28
26436;BME280;15351;52.408;16.826;2023-12-29T09:38:35;100098.73;;;10.03;76.36
26436;BME280;15351;52.408;16.826;2023-12-29T09:41:17;100094.77;;;10.06;76.23
26436;BME280;15351;52.408;16.826;2023-12-29T09:44:22;100091.04;;;10.12;76.31
26436;BME280;15351;52.408;16.826;2023-12-29T09:50:57;100079.73;;;10.23;76.10
26436;BME280;15351;52.408;16.826;2023-12-29T09:53:28;100073.33;;;10.26;75.65
26436;BME280;15351;52.408;16.826;2023-12-29T09:58:54;100068.66;;;10.33;75.26
26436;BME280;15351;52.408;16.826;2023-12-29T10:01:47;100074.41;;;10.37;74.90
26436;BME280;15351;52.408;16.826;2023-12-29T10:04:22;100077.30;;;10.46;74.76
26436;BME280;15351;52.408;16.826;2023-12-29T10:07:40;100076.97;;;10.75;74.51
26436;BME280;15351;52.408;16.826;2023-12-29T10:10:30;100070.86;;;10.97;73.88
26436;BME280;15351;52.408;16.826;2023-12-29T10:13:22;100066.38;;;11.00;73.51
26436;BME280;15351;52.408;16.826;2023-12-29T10:19:37;100056.16;;;11.02;72.85
26436;BME280;15351;52.408;16.826;2023-12-29T10:22:26;100054.59;;;11.03;72.69
26436;BME280;15351;52.408;16.826;2023-12-29T10:25:43;100051.06;;;11.04;72.56
26436;BME280;15351;52.408;16.826;2023-12-29T10:28:58;100049.83;;;11.05;72.27
26436;BME280;15351;52.408;16.826;2023-12-29T10:31:52;100052.55;;;11.09;72.29
26436;BME280;15351;52.408;16.826;2023-12-29T10:34:39;100060.80;;;11.25;72.23
26436;BME280;15351;52.408;16.826;2023-12-29T10:37:31;100062.54;;;12.22;71.49
26436;BME280;15351;52.408;16.826;2023-12-29T10:40:21;100064.91;;;12.60;69.65
26436;BME280;15351;52.408;16.826;2023-12-29T10:43:06;100059.17;;;12.50;69.04
26436;BME280;15351;52.408;16.826;2023-12-29T10:46:27;100048.09;;;12.32;68.93
26436;BME280;15351;52.408;16.826;2023-12-29T10:48:51;100041.59;;;12.18;68.91
26436;BME280;15351;52.408;16.826;2023-12-29T10:51:36;100028.91;;;12.05;68.69
26436;BME280;15351;52.408;16.826;2023-12-29T11:00:32;100038.80;;;11.84;68.89
26436;BME280;15351;52.408;16.826;2023-12-29T11:03:21;100042.91;;;11.78;68.88
26436;BME280;15351;52.408;16.826;2023-12-29T11:06:13;100045.93;;;11.76;68.89
26436;BME280;15351;52.408;16.826;2023-12-29T11:08:43;100036.63;;;11.73;68.86
26436;BME280;15351;52.408;16.826;2023-12-29T11:11:30;100041.99;;;11.71;68.92
26436;BME280;15351;52.408;16.826;2023-12-29T11:14:17;100037.58;;;11.70;69.15
26436;BME280;15351;52.408;16.826;2023-12-29T11:16:50;100038.91;;;11.70;69.15
26436;BME280;15351;52.408;16.826;2023-12-29T11:19:20;100043.52;;;11.69;69.17
26436;BME280;15351;52.408;16.826;2023-12-29T11:25:28;100030.00;;;11.69;69.13
26436;BME280;15351;52.408;16.826;2023-12-29T11:27:54;100026.38;;;11.69;69.00
26436;BME280;15351;52.408;16.826;2023-12-29T11:30:32;100032.12;;;11.69;69.15
26436;BME280;15351;52.408;16.826;2023-12-29T11:42:51;100051.92;;;11.68;69.11
26436;BME280;15351;52.408;16.826;2023-12-29T11:49:19;100042.83;;;11.60;69.37
26436;BME280;15351;52.408;16.826;2023-12-29T11:52:38;100045.52;;;11.61;69.20
26436;BME280;15351;52.408;16.826;2023-12-29T11:55:45;100036.00;;;11.58;69.34
26436;BME280;15351;52.408;16.826;2023-12-29T12:02:33;100027.19;;;11.58;69.49
26436;BME280;15351;52.408;16.826;2023-12-29T12:05:48;100021.50;;;11.62;69.74
26436;BME280;15351;52.408;16.826;2023-12-29T12:13:03;100028.56;;;11.71;69.74
26436;BME280;15351;52.408;16.826;2023-12-29T12:16:07;100030.31;;;11.71;69.79
26436;BME280;15351;52.408;16.826;2023-12-29T12:19:07;100024.89;;;11.69;69.89
26436;BME280;15351;52.408;16.826;2023-12-29T12:21:54;100023.27;;;11.69;69.75
26436;BME280;15351;52.408;16.826;2023-12-29T12:25:06;100025.52;;;11.69;69.69
26436;BME280;15351;52.408;16.826;2023-12-29T12:31:31;100030.77;;;11.70;69.73
26436;BME280;15351;52.408;16.826;2023-12-29T12:34:10;100020.29;;;11.73;69.79
26436;BME280;15351;52.408;16.826;2023-12-29T12:40:30;100020.83;;;11.82;69.93
26436;BME280;15351;52.408;16.826;2023-12-29T12:46:09;100029.63;;;11.85;69.62
26436;BME280;15351;52.408;16.826;2023-12-29T12:49:20;100026.55;;;11.85;69.61
26436;BME280;15351;52.408;16.826;2023-12-29T12:52:17;100030.17;;;11.85;69.65
26436;BME280;15351;52.408;16.826;2023-12-29T12:55:09;100023.71;;;11.85;69.47
26436;BME280;15351;52.408;16.826;2023-12-29T12:58:19;100024.38;;;11.83;69.42
26436;BME280;15351;52.408;16.826;2023-12-29T13:02:00;100014.85;;;11.82;69.40
26436;BME280;15351;52.408;16.826;2023-12-29T13:04:55;100011.59;;;11.81;69.33
26436;BME280;15351;52.408;16.826;2023-12-29T13:07:53;100012.23;;;11.79;69.11
26436;BME280;15351;52.408;16.826;2023-12-29T13:11:17;100010.55;;;11.76;68.94
26436;BME280;15351;52.408;16.826;2023-12-29T13:14:02;100023.84;;;11.74;68.74
26436;BME280;15351;52.408;16.826;2023-12-29T13:17:25;100023.92;;;11.75;68.69
26436;BME280;15351;52.408;16.826;2023-12-29T13:20:30;100024.41;;;11.73;68.65
26436;BME280;15351;52.408;16.826;2023-12-29T13:23:31;100013.88;;;11.73;68.78
26436;BME280;15351;52.408;16.826;2023-12-29T13:26:45;100011.16;;;11.74;68.62
26436;BME280;15351;52.408;16.826;2023-12-29T13:29:24;100016.36;;;11.75;68.41
26436;BME280;15351;52.408;16.826;2023-12-29T13:35:45;100006.63;;;11.75;68.21
26436;BME280;15351;52.408;16.826;2023-12-29T13:38:53;100001.52;;;11.75;68.25
26436;BME280;15351;52.408;16.826;2023-12-29T13:41:58;99995.50;;;11.76;68.26
26436;BME280;15351;52.408;16.826;2023-12-29T13:44:50;99994.41;;;11.76;68.07
26436;BME280;15351;52.408;16.826;2023-12-29T13:47:40;100002.36;;;11.77;67.95
26436;BME280;15351;52.408;16.826;2023-12-29T13:50:25;100013.17;;;11.76;67.97
26436;BME280;15351;52.408;16.826;2023-12-29T13:53:22;100020.77;;;11.74;67.88
26436;BME280;15351;52.408;16.826;2023-12-29T13:56:17;100033.63;;;11.76;67.70
26436;BME280;15351;52.408;16.826;2023-12-29T13:59:08;100033.95;;;11.75;67.79
26436;BME280;15351;52.408;16.826;2023-12-29T14:01:37;100031.77;;;11.77;67.65
26436;BME280;15351;52.408;16.826;2023-12-29T14:04:07;100027.30;;;11.76;67.57
26436;BME280;15351;52.408;16.826;2023-12-29T14:10:22;100013.34;;;11.76;67.57
26436;BME280;15351;52.408;16.826;2023-12-29T14:13:25;100013.66;;;11.75;67.49
26436;BME280;15351;52.408;16.826;2023-12-29T14:16:38;100012.52;;;11.74;67.47
26436;BME280;15351;52.408;16.826;2023-12-29T14:22:50;100014.42;;;11.73;67.40
26436;BME280;15351;52.408;16.826;2023-12-29T14:25:26;100020.42;;;11.72;67.32
26436;BME280;15351;52.408;16.826;2023-12-29T14:28:25;100026.73;;;11.71;67.41
26436;BME280;15351;52.408;16.826;2023-12-29T14:34:39;100025.60;;;11.70;67.39
26436;BME280;15351;52.408;16.826;2023-12-29T14:37:24;100019.55;;;11.68;67.46
26436;BME280;15351;52.408;16.826;2023-12-29T14:52:47;100016.76;;;11.66;67.38
26436;BME280;15351;52.408;16.826;2023-12-29T15:05:05;100002.16;;;11.65;67.53
26436;BME280;15351;52.408;16.826;2023-12-29T15:08:52;100002.32;;;11.65;67.56
26436;BME280;15351;52.408;16.826;2023-12-29T15:11:14;99999.02;;;11.64;67.48
26436;BME280;15351;52.408;16.826;2023-12-29T15:13:43;99995.91;;;11.63;67.71
26436;BME280;15351;52.408;16.826;2023-12-29T15:17:01;99995.12;;;11.60;67.82
26436;BME280;15351;52.408;16.826;2023-12-29T15:19:28;100003.23;;;11.61;67.90
26436;BME280;15351;52.408;16.826;2023-12-29T15:22:15;100005.69;;;11.60;67.87
26436;BME280;15351;52.408;16.826;2023-12-29T15:24:43;100007.39;;;11.60;67.76
26436;BME280;15351;52.408;16.826;2023-12-29T15:27:10;100003.48;;;11.58;67.97
26436;BME280;15351;52.408;16.826;2023-12-29T15:29:36;99997.48;;;11.58;68.01
26436;BME280;15351;52.408;16.826;2023-12-29T15:32:05;99986.60;;;11.57;67.96
26436;BME280;15351;52.408;16.826;2023-12-29T15:34:40;99994.04;;;11.57;68.17
26436;BME280;15351;52.408;16.826;2023-12-29T15:37:08;99993.81;;;11.55;68.12
26436;BME280;15351;52.408;16.826;2023-12-29T15:39:46;99993.98;;;11.54;68.27
26436;BME280;15351;52.408;16.826;2023-12-29T15:42:13;99991.81;;;11.55;68.29
26436;BME280;15351;52.408;16.826;2023-12-29T15:44:40;99990.14;;;11.53;68.30
26436;BME280;15351;52.408;16.826;2023-12-29T15:47:07;99988.64;;;11.53;68.21
26436;BME280;15351;52.408;16.826;2023-12-29T15:49:45;99982.39;;;11.51;68.32
26436;BME280;15351;52.408;16.826;2023-12-29T15:52:11;99981.10;;;11.51;68.41
26436;BME280;15351;52.408;16.826;2023-12-29T15:54:39;99981.13;;;11.51;68.23
26436;BME280;15351;52.408;16.826;2023-12-29T15:57:27;99977.59;;;11.50;68.32
26436;BME280;15351;52.408;16.826;2023-12-29T15:59:56;99974.06;;;11.50;68.43
26436;BME280;15351;52.408;16.826;2023-12-29T16:02:41;99973.10;;;11.49;68.36
26436;BME280;15351;52.408;16.826;2023-12-29T16:05:31;99966.71;;;11.47;68.35
26436;BME280;15351;52.408;16.826;2023-12-29T16:07:59;99968.17;;;11.46;68.58
26436;BME280;15351;52.408;16.826;2023-12-29T16:10:28;99965.30;;;11.44;68.71
26436;BME280;15351;52.408;16.826;2023-12-29T16:12:55;99964.94;;;11.43;68.64
26436;BME280;15351;52.408;16.826;2023-12-29T16:15:23;99964.20;;;11.41;68.82
26436;BME280;15351;52.408;16.826;2023-12-29T16:17:50;99968.98;;;11.39;68.83
26436;BME280;15351;52.408;16.826;2023-12-29T16:24:22;99967.48;;;11.34;68.89
26436;BME280;15351;52.408;16.826;2023-12-29T16:26:55;99966.25;;;11.32;69.09
26436;BME280;15351;52.408;16.826;2023-12-29T16:29:31;99965.31;;;11.29;69.18
26436;BME280;15351;52.408;16.826;2023-12-29T16:37:37;99961.87;;;11.27;69.46
26436;BME280;15351;52.408;16.826;2023-12-29T16:40:23;99965.23;;;11.24;69.58
26436;BME280;15351;52.408;16.826;2023-12-29T16:42:59;99963.39;;;11.24;69.60
26436;BME280;15351;52.408;16.826;2023-12-29T16:45:58;99959.64;;;11.24;69.65
26436;BME280;15351;52.408;16.826;2023-12-29T16:51:41;99954.95;;;11.24;69.82
26436;BME280;15351;52.408;16.826;2023-12-29T16:54:18;99960.76;;;11.22;69.88
26436;BME280;15351;52.408;16.826;2023-12-29T16:57:05;99952.08;;;11.18;69.82
26436;BME280;15351;52.408;16.826;2023-12-29T17:03:34;99948.48;;;11.17;69.91
26436;BME280;15351;52.408;16.826;2023-12-29T17:06:36;99950.31;;;11.16;69.97
26436;BME280;15351;52.408;16.826;2023-12-29T17:09:17;99946.67;;;11.14;69.99
26436;BME280;15351;52.408;16.826;2023-12-29T17:11:48;99946.38;;;11.13;70.17
26436;BME280;15351;52.408;16.826;2023-12-29T17:14:27;99950.41;;;11.13;70.17
26436;BME280;15351;52.408;16.826;2023-12-29T17:17:38;99942.55;;;11.12;70.19
26436;BME280;15351;52.408;16.826;2023-12-29T17:20:09;99944.29;;;11.11;70.39
26436;BME280;15351;52.408;16.826;2023-12-29T17:22:37;99941.98;;;11.10;70.55
26436;BME280;15351;52.408;16.826;2023-12-29T17:25:15;99940.05;;;11.06;70.66
26436;BME280;15351;52.408;16.826;2023-12-29T17:27:55;99942.63;;;11.06;70.80
26436;BME280;15351;52.408;16.826;2023-12-29T17:30:45;99945.92;;;11.07;70.83
26436;BME280;15351;52.408;16.826;2023-12-29T17:33:35;99944.64;;;11.07;70.92
26436;BME280;15351;52.408;16.826;2023-12-29T17:36:10;99935.37;;;11.07;71.02
26436;BME280;15351;52.408;16.826;2023-12-29T17:39:16;99931.05;;;11.02;71.00
26436;BME280;15351;52.408;16.826;2023-12-29T17:41:51;99936.49;;;11.03;71.01
26436;BME280;15351;52.408;16.826;2023-12-29T17:44:44;99940.93;;;11.03;71.06
26436;BME280;15351;52.408;16.826;2023-12-29T17:47:36;99943.09;;;11.03;71.10
26436;BME280;15351;52.408;16.826;2023-12-29T17:50:12;99946.74;;;11.02;71.13
26436;BME280;15351;52.408;16.826;2023-12-29T17:52:40;99947.11;;;11.02;70.95
26436;BME280;15351;52.408;16.826;2023-12-29T17:55:19;99947.67;;;11.01;70.97
26436;BME280;15351;52.408;16.826;2023-12-29T17:57:54;99954.52;;;10.99;70.94
26436;BME280;15351;52.408;16.826;2023-12-29T18:00:25;99949.48;;;10.99;71.01
26436;BME280;15351;52.408;16.826;2023-12-29T18:03:20;99945.94;;;10.97;71.14
26436;BME280;15351;52.408;16.826;2023-12-29T18:05:50;99948.08;;;10.99;71.15
26436;BME280;15351;52.408;16.826;2023-12-29T18:08:34;99950.77;;;10.98;70.99
26436;BME280;15351;52.408;16.826;2023-12-29T18:11:08;99944.94;;;10.97;71.02
26436;BME280;15351;52.408;16.826;2023-12-29T18:13:46;99947.72;;;10.96;71.26
26436;BME280;15351;52.408;16.826;2023-12-29T18:17:51;99943.17;;;10.95;71.09
26436;BME280;15351;52.408;16.826;2023-12-29T18:24:21;99948.45;;;10.94;71.40
26436;BME280;15351;52.408;16.826;2023-12-29T18:27:05;99946.37;;;10.94;71.46
26436;BME280;15351;52.408;16.826;2023-12-29T18:29:57;99951.35;;;10.93;71.42
26436;BME280;15351;52.408;16.826;2023-12-29T18:32:58;99953.41;;;10.92;71.39
26436;BME280;15351;52.408;16.826;2023-12-29T18:36:11;99954.51;;;10.89;71.39
26436;BME280;15351;52.408;16.826;2023-12-29T18:38:52;99956.19;;;10.87;71.48
26436;BME280;15351;52.408;16.826;2023-12-29T18:41:28;99957.12;;;10.86;71.50